createdAt,value
2015-08-16T00:00:57.646Z,21
2015-08-16T00:01:59.319Z,21
2015-08-16T00:03:00.321Z,21
2015-08-16T00:03:59.979Z,21
2015-08-16T00:05:02.778Z,21
2015-08-16T00:06:01.764Z,21
2015-08-16T00:07:02.923Z,21
2015-08-16T00:08:03.518Z,21
2015-08-16T00:09:05.316Z,21.1
2015-08-16T00:10:05.288Z,21.1
2015-08-16T00:11:06.212Z,21.2
2015-08-16T00:12:09.308Z,21.2
2015-08-16T00:13:08.809Z,21.1
2015-08-16T00:14:08.826Z,21.1
2015-08-16T00:15:10.204Z,21.1
2015-08-16T00:16:10.909Z,21.1
2015-08-16T00:17:11.474Z,21.1
2015-08-16T00:18:13.288Z,21.1
2015-08-16T00:19:13.259Z,21.1
2015-08-16T00:20:14.433Z,21.1
2015-08-16T00:22:15.905Z,21
2015-08-16T00:24:17.988Z,21.1
2015-08-16T00:25:18.864Z,21.1
2015-08-16T00:26:21.741Z,21
2015-08-16T00:27:20.321Z,21
2015-08-16T00:28:23.120Z,21
2015-08-16T00:29:22.106Z,20.9
2015-08-16T00:30:23.218Z,21
2015-08-16T00:31:23.890Z,20.9
2015-08-16T00:32:24.753Z,20.9
2015-08-16T00:33:25.630Z,20.9
2015-08-16T00:34:26.490Z,20.9
2015-08-16T00:35:27.398Z,20.9
2015-08-16T00:36:28.447Z,20.9
2015-08-16T00:37:29.200Z,20.9
2015-08-16T00:38:30.484Z,20.8
2015-08-16T00:39:30.953Z,20.8
2015-08-16T00:40:31.925Z,20.8
2015-08-16T00:41:33.129Z,20.8
2015-08-16T00:42:33.569Z,20.7
2015-08-16T00:43:34.493Z,20.7
2015-08-16T00:44:35.370Z,20.6
2015-08-16T00:45:36.309Z,20.7
2015-08-16T00:46:37.467Z,20.8
2015-08-16T00:47:38.016Z,20.7
2015-08-16T00:48:39.003Z,20.7
2015-08-16T00:49:39.786Z,20.6
2015-08-16T00:50:40.647Z,20.5
2015-08-16T00:51:41.540Z,20.4
2015-08-16T00:52:42.431Z,20.2
2015-08-16T00:53:43.372Z,20.2
2015-08-16T00:54:44.233Z,20
2015-08-16T00:55:45.079Z,20
2015-08-16T00:56:45.971Z,20
2015-08-16T00:57:46.880Z,20
2015-08-16T00:58:47.741Z,20
2015-08-16T00:59:48.633Z,19.9
2015-08-16T01:00:49.572Z,19.9
2015-08-16T01:01:50.434Z,19.9
2015-08-16T01:02:51.280Z,19.9
2015-08-16T01:03:52.141Z,19.8
2015-08-16T01:04:53.346Z,19.8
2015-08-16T01:05:53.911Z,19.8
2015-08-16T01:06:54.819Z,19.8
2015-08-16T01:07:55.711Z,19.8
2015-08-16T01:08:56.573Z,19.9
2015-08-16T01:09:57.450Z,19.9
2015-08-16T01:10:58.341Z,19.9
2015-08-16T01:11:59.218Z,19.9
2015-08-16T01:13:00.096Z,19.9
2015-08-16T01:14:00.989Z,19.9
2015-08-16T01:15:01.866Z,20
2015-08-16T01:16:02.820Z,19.9
2015-08-16T01:17:03.650Z,19.9
2015-08-16T01:18:04.513Z,20
2015-08-16T01:19:05.404Z,20
2015-08-16T01:20:06.297Z,19.9
2015-08-16T01:21:07.174Z,20
2015-08-16T01:22:08.083Z,20
2015-08-16T01:23:08.944Z,19.9
2015-08-16T01:24:09.852Z,20
2015-08-16T01:25:10.698Z,20
2015-08-16T01:26:11.590Z,20
2015-08-16T01:27:12.483Z,20
2015-08-16T01:28:13.360Z,20.1
2015-08-16T01:29:16.174Z,20
2015-08-16T01:30:15.143Z,20
2015-08-16T01:31:16.099Z,20
2015-08-16T01:32:16.883Z,20.1
2015-08-16T01:33:17.776Z,20
2015-08-16T01:34:18.668Z,20
2015-08-16T01:35:19.513Z,20
2015-08-16T01:36:20.437Z,20
2015-08-16T01:37:21.330Z,20
2015-08-16T01:38:22.224Z,20
2015-08-16T01:39:23.084Z,19.9
2015-08-16T01:40:23.961Z,19.9
2015-08-16T01:41:24.838Z,19.8
2015-08-16T01:42:25.731Z,19.7
2015-08-16T01:43:26.623Z,19.8
2015-08-16T01:44:27.516Z,19.8
2015-08-16T01:45:28.362Z,19.8
2015-08-16T01:46:29.317Z,19.8
2015-08-16T01:47:30.147Z,19.8
2015-08-16T01:48:31.039Z,19.8
2015-08-16T01:49:31.915Z,19.7
2015-08-16T01:50:32.809Z,19.6
2015-08-16T01:51:33.702Z,19.7
2015-08-16T01:52:36.485Z,19.7
2015-08-16T01:53:35.439Z,19.7
2015-08-16T01:54:36.332Z,19.7
2015-08-16T01:55:37.209Z,19.7
2015-08-16T01:56:38.101Z,19.6
2015-08-16T01:57:39.025Z,19.5
2015-08-16T01:58:39.871Z,19.5
2015-08-16T01:59:40.748Z,19.5
2015-08-16T02:00:41.625Z,19.4
2015-08-16T02:01:42.689Z,19.4
2015-08-16T02:02:43.395Z,19.4
2015-08-16T02:03:44.287Z,19.5
2015-08-16T02:04:45.211Z,19.5
2015-08-16T02:05:46.057Z,19.5
2015-08-16T02:06:46.934Z,19.5
2015-08-16T02:07:47.811Z,19.4
2015-08-16T02:08:50.609Z,19.4
2015-08-16T02:09:49.580Z,19.4
2015-08-16T02:10:50.722Z,19.4
2015-08-16T02:11:51.350Z,19.3
2015-08-16T02:12:52.243Z,19.3
2015-08-16T02:13:53.135Z,19.3
2015-08-16T02:14:54.028Z,19.2
2015-08-16T02:15:54.873Z,19.2
2015-08-16T02:16:55.968Z,19.2
2015-08-16T02:17:56.627Z,19.1
2015-08-16T02:18:57.644Z,19
2015-08-16T02:19:58.678Z,19
2015-08-16T02:20:59.476Z,19
2015-08-16T02:22:00.338Z,19.1
2015-08-16T02:23:01.309Z,19.2
2015-08-16T02:24:02.154Z,19.1
2015-08-16T02:25:04.844Z,19.1
2015-08-16T02:26:03.830Z,19.2
2015-08-16T02:27:05.254Z,19.2
2015-08-16T02:28:05.647Z,19.3
2015-08-16T02:29:06.883Z,19.3
2015-08-16T02:30:07.604Z,19.3
2015-08-16T02:31:08.528Z,19.3
2015-08-16T02:32:10.014Z,19.4
2015-08-16T02:33:10.031Z,19.5
2015-08-16T02:34:11.674Z,19.6
2015-08-16T02:35:12.691Z,19.6
2015-08-16T02:36:13.085Z,19.6
2015-08-16T02:37:13.680Z,19.6
2015-08-16T02:38:15.166Z,19.5
2015-08-16T02:39:15.543Z,19.6
2015-08-16T02:40:16.404Z,19.6
2015-08-16T02:41:18.672Z,19.7
2015-08-16T02:43:18.848Z,19.7
2015-08-16T02:44:19.646Z,19.6
2015-08-16T02:45:20.492Z,19.6
2015-08-16T02:46:21.416Z,19.6
2015-08-16T02:47:22.262Z,19.6
2015-08-16T02:48:23.139Z,19.5
2015-08-16T02:49:24.031Z,19.5
2015-08-16T02:50:24.939Z,19.5
2015-08-16T02:51:25.800Z,19.5
2015-08-16T02:52:26.677Z,19.5
2015-08-16T02:53:27.555Z,19.5
2015-08-16T02:54:28.509Z,19.5
2015-08-16T02:55:29.465Z,19.4
2015-08-16T02:56:30.263Z,19.4
2015-08-16T02:57:31.156Z,19.4
2015-08-16T02:58:32.081Z,19.3
2015-08-16T02:59:32.925Z,19.4
2015-08-16T03:00:33.771Z,19.3
2015-08-16T03:01:34.820Z,19.3
2015-08-16T03:02:35.556Z,19.3
2015-08-16T03:03:38.262Z,19.3
2015-08-16T03:04:37.310Z,19.3
2015-08-16T03:05:38.250Z,19.3
2015-08-16T03:06:39.143Z,19.3
2015-08-16T03:07:40.254Z,19.3
2015-08-16T03:08:40.818Z,19.3
2015-08-16T03:09:41.757Z,19.3
2015-08-16T03:10:42.790Z,19.2
2015-08-16T03:11:43.559Z,19.1
2015-08-16T03:12:44.357Z,19.1
2015-08-16T03:13:45.250Z,19.1
2015-08-16T03:14:46.127Z,19.1
2015-08-16T03:15:46.973Z,19.1
2015-08-16T03:16:47.865Z,19.1
2015-08-16T03:17:48.851Z,19.1
2015-08-16T03:18:49.650Z,19.1
2015-08-16T03:19:50.527Z,19.1
2015-08-16T03:20:51.795Z,19.1
2015-08-16T03:21:52.468Z,19.1
2015-08-16T03:22:53.377Z,19.1
2015-08-16T03:23:54.237Z,19
2015-08-16T03:24:55.162Z,19.1
2015-08-16T03:25:55.960Z,19.1
2015-08-16T03:26:56.884Z,19.1
2015-08-16T03:27:57.855Z,19.1
2015-08-16T03:28:58.669Z,19.1
2015-08-16T03:29:59.500Z,19.1
2015-08-16T03:31:00.533Z,19.1
2015-08-16T03:32:01.332Z,19.1
2015-08-16T03:33:02.178Z,19.1
2015-08-16T03:34:02.992Z,19
2015-08-16T03:35:04.025Z,19
2015-08-16T03:36:04.761Z,19
2015-08-16T03:37:05.794Z,19
2015-08-16T03:38:06.578Z,18.9
2015-08-16T03:39:07.798Z,18.9
2015-08-16T03:40:08.363Z,18.9
2015-08-16T03:41:09.302Z,18.9
2015-08-16T03:42:10.086Z,18.9
2015-08-16T03:43:11.009Z,18.9
2015-08-16T03:44:13.057Z,18.9
2015-08-16T03:45:12.904Z,18.9
2015-08-16T03:46:13.625Z,18.9
2015-08-16T03:47:14.549Z,19
2015-08-16T03:48:15.457Z,18.9
2015-08-16T03:49:16.271Z,18.9
2015-08-16T03:50:17.116Z,19
2015-08-16T03:51:18.009Z,19.1
2015-08-16T03:52:18.886Z,19.1
2015-08-16T03:53:19.811Z,19.1
2015-08-16T03:54:20.843Z,19.2
2015-08-16T03:55:21.564Z,19.2
2015-08-16T03:56:22.488Z,19.1
2015-08-16T03:57:23.411Z,19.2
2015-08-16T03:58:24.195Z,19.3
2015-08-16T03:59:26.259Z,19.3
2015-08-16T04:00:25.964Z,19.2
2015-08-16T04:01:26.873Z,19.2
2015-08-16T04:02:27.750Z,19.1
2015-08-16T04:03:28.736Z,19
2015-08-16T04:04:29.504Z,19
2015-08-16T04:05:30.380Z,19
2015-08-16T04:06:31.758Z,19
2015-08-16T04:07:32.291Z,19
2015-08-16T04:08:33.199Z,19
2015-08-16T04:09:33.935Z,19.1
2015-08-16T04:10:34.968Z,19.1
2015-08-16T04:11:35.767Z,19.2
2015-08-16T04:12:36.612Z,19.2
2015-08-16T04:13:37.475Z,19.3
2015-08-16T04:14:39.663Z,19.4
2015-08-16T04:15:39.259Z,19.4
2015-08-16T04:16:40.105Z,19.4
2015-08-16T04:17:41.029Z,19.5
2015-08-16T04:18:41.952Z,19.6
2015-08-16T04:19:42.798Z,19.7
2015-08-16T04:20:43.722Z,19.7
2015-08-16T04:21:44.505Z,19.8
2015-08-16T04:22:45.445Z,19.9
2015-08-16T04:23:46.416Z,19.9
2015-08-16T04:24:47.339Z,20
2015-08-16T04:25:48.122Z,20
2015-08-16T04:26:49.046Z,19.9
2015-08-16T04:27:49.892Z,19.9
2015-08-16T04:28:50.737Z,19.8
2015-08-16T04:29:53.006Z,19.8
2015-08-16T04:30:52.538Z,19.8
2015-08-16T04:31:53.384Z,19.8
2015-08-16T04:32:54.355Z,19.8
2015-08-16T04:33:55.138Z,19.8
2015-08-16T04:34:55.999Z,19.9
2015-08-16T04:35:56.986Z,19.9
2015-08-16T04:36:57.847Z,19.9
2015-08-16T04:37:58.630Z,19.9
2015-08-16T04:38:59.554Z,20
2015-08-16T04:40:00.540Z,20
2015-08-16T04:41:01.464Z,20
2015-08-16T04:42:02.185Z,19.9
2015-08-16T04:43:03.171Z,20
2015-08-16T04:44:04.111Z,20.1
2015-08-16T04:45:06.160Z,20.1
2015-08-16T04:46:05.787Z,20.1
2015-08-16T04:47:06.585Z,20
2015-08-16T04:48:07.509Z,20
2015-08-16T04:49:08.371Z,20.1
2015-08-16T04:50:09.404Z,20.2
2015-08-16T04:51:10.186Z,20.2
2015-08-16T04:52:11.049Z,20.1
2015-08-16T04:53:11.972Z,20.1
2015-08-16T04:54:12.895Z,20.1
2015-08-16T04:55:13.694Z,20.1
2015-08-16T04:56:14.713Z,20.1
2015-08-16T04:57:15.323Z,20.2
2015-08-16T04:58:16.216Z,20.3
2015-08-16T04:59:17.062Z,20.3
2015-08-16T05:00:19.204Z,20.4
2015-08-16T05:01:18.878Z,20.3
2015-08-16T05:02:19.771Z,20.4
2015-08-16T05:03:20.663Z,20.1
2015-08-16T05:04:21.525Z,20.1
2015-08-16T05:05:22.401Z,20.2
2015-08-16T05:06:23.293Z,20.3
2015-08-16T05:07:24.171Z,20.4
2015-08-16T05:08:25.064Z,20.5
2015-08-16T05:09:25.940Z,20.6
2015-08-16T05:10:26.833Z,20.6
2015-08-16T05:11:27.741Z,20.7
2015-08-16T05:12:28.603Z,20.7
2015-08-16T05:13:29.479Z,20.6
2015-08-16T05:14:30.388Z,20.5
2015-08-16T05:15:32.406Z,20.5
2015-08-16T05:16:32.126Z,20.5
2015-08-16T05:17:33.034Z,20.5
2015-08-16T05:18:33.928Z,20.6
2015-08-16T05:19:34.819Z,20.6
2015-08-16T05:20:35.681Z,20.7
2015-08-16T05:21:38.464Z,20.7
2015-08-16T05:22:37.450Z,20.7
2015-08-16T05:23:38.327Z,20.5
2015-08-16T05:24:39.219Z,20.5
2015-08-16T05:25:40.128Z,20.5
2015-08-16T05:26:41.021Z,20.6
2015-08-16T05:27:41.850Z,20.7
2015-08-16T05:28:42.743Z,20.6
2015-08-16T05:29:43.651Z,20.6
2015-08-16T05:30:44.560Z,20.6
2015-08-16T05:31:45.374Z,20.6
2015-08-16T05:32:46.335Z,20.7
2015-08-16T05:33:47.267Z,20.6
2015-08-16T05:34:48.184Z,20.7
2015-08-16T05:35:49.102Z,20.8
2015-08-16T05:36:50.035Z,20.8
2015-08-16T05:37:50.926Z,20.9
2015-08-16T05:38:51.818Z,21.1
2015-08-16T05:39:52.724Z,21.2
2015-08-16T05:40:53.631Z,21.1
2015-08-16T05:41:54.491Z,20.8
2015-08-16T05:42:55.435Z,20.7
2015-08-16T05:43:56.302Z,20.7
2015-08-16T05:44:57.199Z,20.8
2015-08-16T05:45:59.191Z,20.9
2015-08-16T05:46:58.978Z,20.9
2015-08-16T05:49:02.658Z,21
2015-08-16T05:50:01.611Z,21
2015-08-16T05:51:02.522Z,20.9
2015-08-16T05:52:03.386Z,20.8
2015-08-16T05:53:04.279Z,21
2015-08-16T05:54:05.156Z,21.1
2015-08-16T05:55:06.066Z,21.1
2015-08-16T05:56:06.943Z,21.1
2015-08-16T05:57:07.837Z,21.2
2015-08-16T05:58:08.698Z,21.3
2015-08-16T05:59:09.686Z,21.3
2015-08-16T06:00:10.469Z,21.2
2015-08-16T06:01:12.535Z,21.2
2015-08-16T06:02:12.272Z,21.4
2015-08-16T06:03:13.164Z,21.5
2015-08-16T06:04:14.026Z,21.5
2015-08-16T06:05:14.903Z,21.5
2015-08-16T06:06:15.796Z,21.6
2015-08-16T06:07:16.688Z,21.9
2015-08-16T06:08:17.565Z,22.2
2015-08-16T06:09:18.457Z,21.9
2015-08-16T06:10:19.334Z,22.2
2015-08-16T06:11:20.242Z,22.5
2015-08-16T06:12:21.103Z,22.7
2015-08-16T06:13:22.013Z,22.7
2015-08-16T06:14:22.889Z,22.7
2015-08-16T06:15:23.782Z,22.7
2015-08-16T06:16:25.861Z,22.6
2015-08-16T06:17:25.535Z,22.7
2015-08-16T06:18:26.444Z,22.8
2015-08-16T06:19:27.305Z,22.6
2015-08-16T06:20:28.182Z,22.7
2015-08-16T06:21:29.075Z,22.5
2015-08-16T06:22:29.952Z,22.5
2015-08-16T06:23:30.844Z,22.5
2015-08-16T06:24:31.752Z,22.6
2015-08-16T06:25:32.645Z,23
2015-08-16T06:26:33.506Z,23.3
2015-08-16T06:27:34.399Z,22.8
2015-08-16T06:28:35.292Z,22.5
2015-08-16T06:29:36.200Z,22.8
2015-08-16T06:30:37.046Z,22.9
2015-08-16T06:31:38.673Z,23
2015-08-16T06:32:40.550Z,22.8
2015-08-16T06:33:41.427Z,23
2015-08-16T06:34:40.601Z,22.8
2015-08-16T06:35:41.478Z,22.6
2015-08-16T06:36:42.370Z,23.1
2015-08-16T06:37:43.247Z,23.6
2015-08-16T06:38:44.155Z,24
2015-08-16T06:39:45.704Z,24.2
2015-08-16T06:40:46.205Z,24.3
2015-08-16T06:41:46.958Z,23.7
2015-08-16T06:42:47.742Z,23.8
2015-08-16T06:43:48.634Z,24.4
2015-08-16T06:44:49.464Z,24.6
2015-08-16T06:45:50.341Z,24.3
2015-08-16T06:46:52.468Z,23.9
2015-08-16T06:47:52.142Z,23.9
2015-08-16T06:48:52.987Z,23.7
2015-08-16T06:49:53.880Z,23.5
2015-08-16T06:50:54.788Z,23.7
2015-08-16T06:51:55.696Z,23.5
2015-08-16T06:52:56.573Z,23.8
2015-08-16T06:53:57.435Z,24.2
2015-08-16T06:54:58.343Z,24.2
2015-08-16T06:55:59.236Z,23.8
2015-08-16T06:57:00.112Z,23.2
2015-08-16T06:58:00.974Z,22.9
2015-08-16T06:59:01.851Z,23.3
2015-08-16T07:00:02.775Z,23.5
2015-08-16T07:01:03.652Z,23.7
2015-08-16T07:02:05.685Z,24.2
2015-08-16T07:03:05.452Z,24.9
2015-08-16T07:04:06.314Z,25.3
2015-08-16T07:05:07.206Z,25.5
2015-08-16T07:06:08.083Z,25.5
2015-08-16T07:07:08.976Z,25.2
2015-08-16T07:08:09.853Z,25.3
2015-08-16T07:09:10.777Z,25.6
2015-08-16T07:10:11.637Z,25.6
2015-08-16T07:11:12.530Z,25.5
2015-08-16T07:12:13.408Z,25.4
2015-08-16T07:13:14.300Z,25.2
2015-08-16T07:14:15.209Z,25.2
2015-08-16T07:15:16.070Z,25.2
2015-08-16T07:16:16.962Z,25.4
2015-08-16T07:17:18.996Z,25.4
2015-08-16T07:18:18.763Z,25
2015-08-16T07:19:19.624Z,24.6
2015-08-16T07:20:20.517Z,24.8
2015-08-16T07:21:21.393Z,24.6
2015-08-16T07:22:22.333Z,24.5
2015-08-16T07:23:23.210Z,24.8
2015-08-16T07:24:24.384Z,24.9
2015-08-16T07:25:28.167Z,25
2015-08-16T07:26:25.841Z,25.1
2015-08-16T07:27:28.718Z,25
2015-08-16T07:28:27.657Z,24.9
2015-08-16T07:29:28.519Z,25.2
2015-08-16T07:30:30.473Z,25.3
2015-08-16T07:31:30.288Z,25.4
2015-08-16T07:32:31.228Z,25.3
2015-08-16T07:33:32.042Z,26.3
2015-08-16T07:34:32.981Z,27.2
2015-08-16T07:35:33.843Z,27.2
2015-08-16T07:36:34.736Z,27.8
2015-08-16T07:37:35.643Z,28
2015-08-16T07:38:36.505Z,27.9
2015-08-16T07:39:37.397Z,27.5
2015-08-16T07:40:38.384Z,27.3
2015-08-16T07:41:39.183Z,27
2015-08-16T07:42:40.075Z,27.5
2015-08-16T07:43:40.984Z,27.6
2015-08-16T07:44:41.907Z,27.3
2015-08-16T07:45:47.144Z,27.3
2015-08-16T07:47:44.582Z,26
2015-08-16T07:48:45.397Z,26.4
2015-08-16T07:49:46.289Z,26.5
2015-08-16T07:50:47.182Z,27.3
2015-08-16T07:51:48.107Z,28.2
2015-08-16T07:52:48.953Z,29.1
2015-08-16T07:53:49.861Z,29.5
2015-08-16T07:54:50.737Z,29.1
2015-08-16T07:55:51.584Z,28.9
2015-08-16T07:56:52.508Z,29.1
2015-08-16T07:57:53.399Z,30.1
2015-08-16T07:58:54.386Z,30.6
2015-08-16T07:59:55.200Z,30
2015-08-16T08:00:56.061Z,29.5
2015-08-16T08:01:56.954Z,29.6
2015-08-16T08:02:57.940Z,29.5
2015-08-16T08:03:58.739Z,29.5
2015-08-16T08:05:00.024Z,29.1
2015-08-16T08:06:00.509Z,28.9
2015-08-16T08:07:01.418Z,29.2
2015-08-16T08:08:02.310Z,29.8
2015-08-16T08:09:03.156Z,30.6
2015-08-16T08:10:04.095Z,30.8
2015-08-16T08:11:05.019Z,31
2015-08-16T08:12:05.880Z,31.1
2015-08-16T08:13:06.757Z,31.6
2015-08-16T08:14:07.712Z,32.2
2015-08-16T08:15:08.543Z,32.5
2015-08-16T08:16:09.436Z,32.9
2015-08-16T08:17:10.406Z,32.8
2015-08-16T08:18:11.299Z,33.5
2015-08-16T08:19:12.097Z,33.7
2015-08-16T08:20:13.021Z,34
2015-08-16T08:21:13.976Z,33.4
2015-08-16T08:22:14.963Z,33.7
2015-08-16T08:23:15.746Z,33.5
2015-08-16T08:24:16.561Z,32.9
2015-08-16T08:25:17.609Z,32.9
2015-08-16T08:26:18.361Z,32.5
2015-08-16T08:27:19.270Z,33
2015-08-16T08:28:20.255Z,33.1
2015-08-16T08:29:21.055Z,32
2015-08-16T08:30:21.932Z,30.9
2015-08-16T08:31:22.825Z,31.6
2015-08-16T08:32:24.311Z,32.5
2015-08-16T08:33:24.672Z,32.8
2015-08-16T08:34:29.534Z,31.8
2015-08-16T08:35:26.786Z,32.9
2015-08-16T08:36:27.616Z,33.5
2015-08-16T08:37:28.196Z,33.5
2015-08-16T08:38:29.103Z,32.5
2015-08-16T08:39:29.966Z,33
2015-08-16T08:40:31.624Z,32.7
2015-08-16T08:41:32.250Z,33.3
2015-08-16T08:42:35.455Z,34.2
2015-08-16T08:43:33.724Z,34.6
2015-08-16T08:44:34.506Z,35
2015-08-16T08:45:35.320Z,35.7
2015-08-16T08:46:36.369Z,35.9
2015-08-16T08:47:37.310Z,35.9
2015-08-16T08:48:38.061Z,35.6
2015-08-16T08:49:38.939Z,35.5
2015-08-16T08:50:39.893Z,36.2
2015-08-16T08:51:40.739Z,36.1
2015-08-16T08:52:41.881Z,35.4
2015-08-16T08:53:42.603Z,35.1
2015-08-16T08:54:43.386Z,34.4
2015-08-16T08:55:44.279Z,34.3
2015-08-16T08:56:45.295Z,34.5
2015-08-16T08:57:46.782Z,31.7
2015-08-16T08:58:46.956Z,32.4
2015-08-16T08:59:47.864Z,31.7
2015-08-16T09:00:48.819Z,33.2
2015-08-16T09:01:49.634Z,34.9
2015-08-16T09:02:50.511Z,34.9
2015-08-16T09:03:52.028Z,35.5
2015-08-16T09:04:52.718Z,36
2015-08-16T09:05:53.250Z,36.7
2015-08-16T09:06:54.143Z,37.1
2015-08-16T09:07:55.020Z,36.6
2015-08-16T09:08:55.897Z,36.5
2015-08-16T09:09:56.836Z,36.2
2015-08-16T09:10:57.698Z,35.8
2015-08-16T09:11:58.638Z,34.3
2015-08-16T09:12:59.623Z,33.6
2015-08-16T09:14:00.391Z,33.2
2015-08-16T09:15:01.299Z,33.2
2015-08-16T09:16:02.161Z,34
2015-08-16T09:17:03.100Z,34.9
2015-08-16T09:18:04.227Z,35.2
2015-08-16T09:19:04.854Z,36.2
2015-08-16T09:20:05.762Z,35.9
2015-08-16T09:21:06.639Z,35.3
2015-08-16T09:22:07.531Z,36.2
2015-08-16T09:23:08.393Z,36.5
2015-08-16T09:24:09.317Z,36.2
2015-08-16T09:25:10.194Z,36.5
2015-08-16T09:26:11.101Z,35.8
2015-08-16T09:27:11.995Z,35.5
2015-08-16T09:28:12.872Z,36.2
2015-08-16T09:29:13.779Z,36.5
2015-08-16T09:30:14.689Z,35.7
2015-08-16T09:31:15.596Z,33.7
2015-08-16T09:32:16.473Z,35.1
2015-08-16T09:33:17.381Z,33.7
2015-08-16T09:34:18.305Z,34.9
2015-08-16T09:35:19.166Z,36.1
2015-08-16T09:36:20.059Z,36.1
2015-08-16T09:37:20.952Z,35.4
2015-08-16T09:38:21.860Z,35.6
2015-08-16T09:39:22.737Z,35.1
2015-08-16T09:40:23.645Z,35
2015-08-16T09:41:24.553Z,34.2
2015-08-16T09:42:25.446Z,33
2015-08-16T09:43:26.339Z,31.7
2015-08-16T09:44:27.215Z,30.3
2015-08-16T09:45:28.108Z,30.4
2015-08-16T09:46:29.001Z,30.5
2015-08-16T09:47:29.908Z,31.6
2015-08-16T09:48:30.817Z,32.8
2015-08-16T09:49:31.757Z,33.6
2015-08-16T09:50:32.586Z,33.1
2015-08-16T09:51:34.417Z,32.8
2015-08-16T09:52:34.372Z,32.2
2015-08-16T09:53:35.265Z,31.4
2015-08-16T09:54:36.156Z,30.8
2015-08-16T09:55:37.049Z,30.9
2015-08-16T09:56:37.957Z,31.2
2015-08-16T09:57:38.834Z,31.8
2015-08-16T09:58:39.711Z,32.4
2015-08-16T09:59:40.604Z,32.2
2015-08-16T10:00:41.481Z,32.1
2015-08-16T10:01:42.436Z,32.1
2015-08-16T10:02:43.297Z,31.9
2015-08-16T10:03:44.956Z,32.5
2015-08-16T10:04:45.567Z,33.4
2015-08-16T10:05:46.303Z,32.9
2015-08-16T10:06:47.804Z,32.5
2015-08-16T10:07:48.103Z,32
2015-08-16T10:08:49.747Z,33.1
2015-08-16T10:09:49.780Z,33.9
2015-08-16T10:10:50.422Z,34.8
2015-08-16T10:11:51.362Z,35
2015-08-16T10:12:54.176Z,35
2015-08-16T10:13:54.475Z,35.7
2015-08-16T10:15:54.902Z,34.3
2015-08-16T10:16:55.809Z,33.6
2015-08-16T10:17:56.717Z,32.7
2015-08-16T10:18:57.625Z,31.6
2015-08-16T10:19:58.487Z,31.1
2015-08-16T10:20:59.348Z,30.8
2015-08-16T10:22:01.569Z,30.9
2015-08-16T10:23:01.149Z,31
2015-08-16T10:24:02.057Z,31.2
2015-08-16T10:25:02.965Z,31.7
2015-08-16T10:26:03.841Z,32.1
2015-08-16T10:27:04.718Z,32.2
2015-08-16T10:28:06.017Z,32.1
2015-08-16T10:29:06.738Z,32.4
2015-08-16T10:30:07.413Z,32.6
2015-08-16T10:31:08.273Z,33
2015-08-16T10:32:09.197Z,33.2
2015-08-16T10:33:10.106Z,33.4
2015-08-16T10:34:10.982Z,33
2015-08-16T10:35:11.875Z,32.4
2015-08-16T10:36:12.768Z,31.7
2015-08-16T10:37:14.738Z,31.9
2015-08-16T10:38:14.553Z,32.5
2015-08-16T10:39:15.446Z,32.6
2015-08-16T10:40:16.369Z,32.6
2015-08-16T10:41:17.246Z,32.9
2015-08-16T10:42:18.108Z,33.2
2015-08-16T10:43:19.000Z,32.5
2015-08-16T10:44:19.877Z,31.6
2015-08-16T10:45:20.801Z,31.2
2015-08-16T10:46:21.677Z,31.1
2015-08-16T10:47:22.602Z,30.9
2015-08-16T10:48:23.478Z,30.7
2015-08-16T10:49:24.433Z,31.4
2015-08-16T10:50:25.233Z,32.3
2015-08-16T10:51:26.156Z,32.4
2015-08-16T10:52:28.111Z,32.8
2015-08-16T10:53:28.207Z,32.9
2015-08-16T10:54:28.834Z,32.4
2015-08-16T10:55:29.727Z,32.6
2015-08-16T10:56:30.604Z,32.4
2015-08-16T10:57:31.481Z,32.1
2015-08-16T10:58:32.389Z,31.9
2015-08-16T10:59:33.281Z,31.6
2015-08-16T11:00:34.174Z,31.2
2015-08-16T11:01:35.098Z,31.9
2015-08-16T11:02:35.959Z,32.7
2015-08-16T11:03:36.867Z,32.1
2015-08-16T11:04:37.698Z,31.9
2015-08-16T11:05:38.652Z,32
2015-08-16T11:06:39.513Z,32.2
2015-08-16T11:07:41.484Z,32.1
2015-08-16T11:08:41.298Z,31.8
2015-08-16T11:09:42.207Z,31.7
2015-08-16T11:10:43.084Z,31.2
2015-08-16T11:11:46.883Z,30.8
2015-08-16T11:12:44.898Z,30.4
2015-08-16T11:13:45.730Z,30.4
2015-08-16T11:14:46.654Z,30.6
2015-08-16T11:15:47.531Z,30.5
2015-08-16T11:16:48.439Z,30.5
2015-08-16T11:17:49.348Z,30.3
2015-08-16T11:18:50.225Z,30.2
2015-08-16T11:19:51.102Z,30.8
2015-08-16T11:20:52.026Z,31.3
2015-08-16T11:21:52.903Z,31.3
2015-08-16T11:22:54.842Z,31.6
2015-08-16T11:23:54.687Z,32.1
2015-08-16T11:24:55.580Z,32
2015-08-16T11:25:56.442Z,31.8
2015-08-16T11:26:57.350Z,31.6
2015-08-16T11:27:58.243Z,30.9
2015-08-16T11:28:59.135Z,30.6
2015-08-16T11:30:00.012Z,30.7
2015-08-16T11:31:00.920Z,31.8
2015-08-16T11:32:01.812Z,32.4
2015-08-16T11:33:02.705Z,33.1
2015-08-16T11:34:03.582Z,32.5
2015-08-16T11:35:04.474Z,32.1
2015-08-16T11:36:05.367Z,30.7
2015-08-16T11:37:06.275Z,30.6
2015-08-16T11:38:08.262Z,30.7
2015-08-16T11:39:08.061Z,30.6
2015-08-16T11:40:08.969Z,30.5
2015-08-16T11:41:09.815Z,30.6
2015-08-16T11:42:12.613Z,30.5
2015-08-16T11:43:11.584Z,30.3
2015-08-16T11:44:12.491Z,30.1
2015-08-16T11:45:13.385Z,32.3
2015-08-16T11:46:14.278Z,35.2
2015-08-16T11:51:47.303Z,35.1
2015-08-16T11:52:47.539Z,34.7
2015-08-16T11:53:49.745Z,34.4
2015-08-16T11:54:51.402Z,34.1
2015-08-16T11:55:50.467Z,33.7
2015-08-16T11:56:51.094Z,33.5
2015-08-16T11:57:52.033Z,33.6
2015-08-16T11:58:52.926Z,33.4
2015-08-16T11:59:53.803Z,33.4
2015-08-16T12:00:55.805Z,33.2
2015-08-16T12:02:56.512Z,32.6
2015-08-16T12:03:57.404Z,32.4
2015-08-16T12:04:58.281Z,32.4
2015-08-16T12:05:59.174Z,32.6
2015-08-16T12:07:00.067Z,33
2015-08-16T12:08:00.959Z,32.8
2015-08-16T12:09:03.008Z,32.9
2015-08-16T12:10:02.760Z,33.3
2015-08-16T12:11:03.637Z,33.7
2015-08-16T12:12:04.530Z,34.2
2015-08-16T12:13:05.437Z,34.8
2015-08-16T12:14:06.284Z,35.3
2015-08-16T12:15:07.223Z,35.7
2015-08-16T12:16:08.146Z,35.9
2015-08-16T12:17:09.040Z,36.1
2015-08-16T12:18:10.056Z,36.1
2015-08-16T12:19:10.856Z,36
2015-08-16T12:20:11.718Z,36.1
2015-08-16T12:21:12.610Z,36.3
2015-08-16T12:22:17.300Z,36.3
2015-08-16T12:23:15.083Z,35.8
2015-08-16T12:24:19.241Z,35
2015-08-16T12:25:18.133Z,34.6
2015-08-16T12:26:19.666Z,34.1
2015-08-16T12:28:20.014Z,34.5
2015-08-16T12:29:23.516Z,34.4
2015-08-16T12:30:22.753Z,33.6
2015-08-16T12:31:26.114Z,33
2015-08-16T12:32:24.506Z,32.2
2015-08-16T12:33:23.413Z,32.2
2015-08-16T12:34:26.026Z,32.3
2015-08-16T12:36:26.436Z,32.5
2015-08-16T12:37:27.938Z,32.8
2015-08-16T12:38:27.925Z,33.1
2015-08-16T12:39:29.630Z,33.7
2015-08-16T12:40:33.428Z,34.2
2015-08-16T12:41:30.602Z,34
2015-08-16T12:42:32.010Z,33.3
2015-08-16T12:43:32.403Z,32.6
2015-08-16T12:44:33.937Z,32.5
2015-08-16T12:45:34.376Z,32.8
2015-08-16T12:46:35.111Z,33
2015-08-16T12:47:36.004Z,32.9
2015-08-16T12:48:36.850Z,33
2015-08-16T12:49:37.727Z,33.1
2015-08-16T12:50:40.604Z,33.3
2015-08-16T12:51:39.481Z,33.6
2015-08-16T12:52:40.936Z,33.9
2015-08-16T12:53:41.266Z,34.1
2015-08-16T12:54:42.846Z,34.3
2015-08-16T12:55:43.317Z,34.1
2015-08-16T12:56:43.928Z,33.7
2015-08-16T12:57:44.804Z,33.3
2015-08-16T12:58:46.198Z,32.9
2015-08-16T12:59:46.605Z,32.9
2015-08-16T13:00:47.561Z,33.4
2015-08-16T13:01:48.391Z,33.9
2015-08-16T13:02:49.299Z,34.2
2015-08-16T13:03:50.223Z,34.2
2015-08-16T13:04:51.115Z,34.4
2015-08-16T13:05:52.086Z,34.2
2015-08-16T13:06:52.855Z,33.5
2015-08-16T13:07:53.841Z,32.7
2015-08-16T13:08:56.624Z,32.9
2015-08-16T13:09:55.735Z,33.1
2015-08-16T13:10:56.440Z,33.1
2015-08-16T13:11:57.410Z,32.9
2015-08-16T13:12:58.412Z,32.9
2015-08-16T13:13:59.211Z,33.2
2015-08-16T13:15:01.932Z,33.4
2015-08-16T13:16:02.106Z,33.5
2015-08-16T13:17:01.842Z,33.4
2015-08-16T13:18:03.922Z,33.7
2015-08-16T13:19:03.690Z,33.9
2015-08-16T13:20:04.583Z,34.2
2015-08-16T13:21:05.553Z,34.6
2015-08-16T13:22:08.415Z,34.5
2015-08-16T13:23:09.120Z,34.5
2015-08-16T13:24:10.606Z,34.3
2015-08-16T13:25:09.278Z,34
2015-08-16T13:26:10.015Z,33.7
2015-08-16T13:27:11.344Z,33.6
2015-08-16T13:28:11.705Z,33.3
2015-08-16T13:29:12.520Z,32.9
2015-08-16T13:30:13.865Z,32.6
2015-08-16T13:31:14.399Z,32.7
2015-08-16T13:32:15.308Z,32.8
2015-08-16T13:33:16.121Z,32.8
2015-08-16T13:34:17.076Z,32.6
2015-08-16T13:35:18.157Z,32.5
2015-08-16T13:36:18.955Z,32.2
2015-08-16T13:37:19.879Z,32.2
2015-08-16T13:38:20.709Z,32.2
2015-08-16T13:39:23.072Z,32.2
2015-08-16T13:40:22.651Z,32
2015-08-16T13:41:23.590Z,31.9
2015-08-16T13:42:26.578Z,31.6
2015-08-16T13:43:25.079Z,31.4
2015-08-16T13:44:25.940Z,31.4
2015-08-16T13:45:27.177Z,31.4
2015-08-16T13:47:30.509Z,31.7
2015-08-16T13:48:29.589Z,31.7
2015-08-16T13:49:30.403Z,31.8
2015-08-16T13:50:31.343Z,31.9
2015-08-16T13:51:32.204Z,32.4
2015-08-16T13:52:33.097Z,33